createdAt,value
2017-08-24T00:03:02.000Z,23.56
2017-08-24T00:13:02.000Z,23.59
2017-08-24T00:23:02.000Z,23.54
2017-08-24T00:33:02.000Z,23.53
2017-08-24T00:43:02.000Z,23.5
2017-08-24T00:53:02.000Z,23.49
2017-08-24T01:03:02.000Z,23.46
2017-08-24T01:13:02.000Z,23.44
2017-08-24T01:23:02.000Z,23.43
2017-08-24T01:33:02.000Z,23.45
2017-08-24T01:43:02.000Z,23.47
2017-08-24T01:53:02.000Z,23.43
2017-08-24T02:03:02.000Z,23.39
2017-08-24T02:13:02.000Z,23.39
2017-08-24T02:23:02.000Z,23.38
2017-08-24T02:33:02.000Z,23.4
2017-08-24T02:43:02.000Z,23.36
2017-08-24T02:53:02.000Z,23.34
2017-08-24T03:03:02.000Z,23.34
2017-08-24T03:13:02.000Z,23.34
2017-08-24T03:23:02.000Z,23.32
2017-08-24T03:33:02.000Z,23.3
2017-08-24T03:43:02.000Z,23.31
2017-08-24T03:53:02.000Z,23.27
2017-08-24T04:03:02.000Z,23.25
2017-08-24T04:13:02.000Z,23.25
2017-08-24T04:23:02.000Z,23.22
2017-08-24T04:33:02.000Z,23.23
2017-08-24T04:43:02.000Z,23.22
2017-08-24T04:53:02.000Z,23.2
2017-08-24T05:03:02.000Z,23.19
2017-08-24T05:13:02.000Z,23.19
2017-08-24T05:23:02.000Z,23.18
2017-08-24T05:33:02.000Z,23.19
2017-08-24T05:43:02.000Z,23.16
2017-08-24T05:53:02.000Z,23.23
2017-08-24T06:03:02.000Z,23.2
2017-08-24T06:13:02.000Z,23.22
2017-08-24T06:23:02.000Z,23.19
2017-08-24T06:33:02.000Z,23.21
2017-08-24T06:43:02.000Z,23.22
2017-08-24T06:53:02.000Z,23.18
2017-08-24T07:03:03.000Z,23.19
2017-08-24T07:13:03.000Z,23.17
2017-08-24T07:23:03.000Z,23.13
2017-08-24T07:33:03.000Z,23.14
2017-08-24T07:43:03.000Z,23.18
2017-08-24T07:53:03.000Z,23.19
2017-08-24T08:03:04.000Z,23.23
2017-08-24T08:13:03.000Z,23.18
2017-08-24T08:23:03.000Z,23.23
2017-08-24T08:33:03.000Z,23.27
2017-08-24T08:43:03.000Z,23.24
2017-08-24T08:53:03.000Z,23.38
2017-08-24T09:03:03.000Z,23.46
2017-08-24T09:13:03.000Z,23.46
2017-08-24T09:23:03.000Z,23.56
2017-08-24T09:33:04.000Z,23.65
2017-08-24T09:53:03.000Z,23.79
2017-08-24T10:03:03.000Z,23.84
2017-08-24T10:13:03.000Z,24
2017-08-24T10:23:03.000Z,23.97
2017-08-24T10:33:03.000Z,23.91
2017-08-24T10:43:03.000Z,23.97
2017-08-24T10:53:03.000Z,24.11
2017-08-24T11:03:03.000Z,24.27
2017-08-24T11:13:03.000Z,24.15
2017-08-24T11:23:03.000Z,24.23
2017-08-24T11:33:03.000Z,24.14
2017-08-24T11:43:03.000Z,24.26
2017-08-24T11:53:03.000Z,24.33
2017-08-24T12:03:04.000Z,24.38
2017-08-24T12:13:03.000Z,24.47
2017-08-24T12:23:03.000Z,24.42
2017-08-24T12:33:03.000Z,24.51
2017-08-24T12:43:03.000Z,24.56
2017-08-24T12:53:03.000Z,24.51
2017-08-24T13:03:03.000Z,24.64
2017-08-24T13:13:03.000Z,24.64
2017-08-24T13:23:03.000Z,24.67
2017-08-24T13:33:04.000Z,24.62
2017-08-24T13:43:03.000Z,24.63
2017-08-24T13:53:03.000Z,24.66
2017-08-24T14:03:03.000Z,24.7
2017-08-24T14:13:03.000Z,24.7
2017-08-24T14:23:03.000Z,24.7
2017-08-24T14:33:08.000Z,24.7
2017-08-24T14:43:04.000Z,24.73
2017-08-24T14:53:07.000Z,24.76
2017-08-24T15:03:04.000Z,24.69
2017-08-24T15:13:04.000Z,24.66
2017-08-24T15:23:04.000Z,24.67
2017-08-24T15:33:04.000Z,24.69
2017-08-24T15:43:04.000Z,24.66
2017-08-24T15:53:04.000Z,24.65
2017-08-24T16:03:04.000Z,24.64
2017-08-24T16:13:04.000Z,24.62
2017-08-24T16:23:04.000Z,24.65
2017-08-24T16:33:04.000Z,24.61
2017-08-24T16:43:04.000Z,24.68
2017-08-24T16:53:06.000Z,24.7
2017-08-24T17:03:04.000Z,24.75
2017-08-24T17:13:05.000Z,24.78
2017-08-24T17:23:04.000Z,24.82
2017-08-24T17:33:05.000Z,24.75
2017-08-24T17:43:04.000Z,24.68
2017-08-24T17:53:04.000Z,24.66
2017-08-24T18:03:04.000Z,24.61
2017-08-24T18:13:04.000Z,24.59
2017-08-24T18:23:04.000Z,24.58
2017-08-24T18:33:04.000Z,24.53
2017-08-24T18:43:04.000Z,24.49
2017-08-24T18:53:04.000Z,24.44
2017-08-24T19:03:04.000Z,24.4
2017-08-24T19:13:04.000Z,24.36
2017-08-24T19:23:04.000Z,24.31
2017-08-24T19:33:04.000Z,24.35
2017-08-24T19:43:04.000Z,24.3
2017-08-24T19:53:04.000Z,24.31
2017-08-24T20:03:04.000Z,24.24
2017-08-24T20:13:04.000Z,24.2
2017-08-24T20:23:04.000Z,24.22
2017-08-24T20:33:04.000Z,24.18
2017-08-24T20:43:04.000Z,24.13
2017-08-24T20:53:04.000Z,24.1
2017-08-24T21:03:04.000Z,24.07
2017-08-24T21:13:04.000Z,24.01
2017-08-24T21:23:04.000Z,23.99
2017-08-24T21:33:05.000Z,24.01
2017-08-24T21:43:06.000Z,24.01
2017-08-24T21:53:04.000Z,23.99
2017-08-24T22:03:04.000Z,23.98
2017-08-24T22:13:05.000Z,23.89
2017-08-24T22:43:05.000Z,23.85
2017-08-24T22:53:05.000Z,23.82
2017-08-24T23:03:05.000Z,23.81
2017-08-24T23:13:05.000Z,23.8
2017-08-24T23:23:05.000Z,23.73
2017-08-24T23:33:05.000Z,23.74
2017-08-24T23:43:05.000Z,23.72
2017-08-24T23:53:05.000Z,23.69
